Time;durP1;ratioP1;P1;durP2;ratioP2;P2;SDS_P1;SDS_P2;PMS_P1;PMS_P2;Temp;Humidity;BMP_temperature;BMP_pressure;BME280_temperature;BME280_humidity;BME280_pressure;Samples;Min_cycle;Max_cycle;Signal;HPM_P1;HPM_P2
2021/05/16 00:01:48;;;;;;;;;;;16.60;73.90;;;;;;5038716;28;87198;-70
2021/05/16 00:04:14;;;;;;;;;;;16.60;73.70;;;;;;5035286;28;88835;-70
2021/05/16 00:06:39;;;;;;;;;;;16.60;73.80;;;;;;5037376;28;87120;-69
2021/05/16 00:09:05;;;;;;;;;;;16.60;73.80;;;;;;5038619;28;87536;-69
2021/05/16 00:11:31;;;;;;;;;;;16.50;73.80;;;;;;5039304;27;88159;-70
2021/05/16 00:13:56;;;;;;;;;;;16.60;73.70;;;;;;5039887;28;88779;-69
2021/05/16 00:16:22;;;;;;;;;;;16.60;74.00;;;;;;5038056;28;88649;-68
2021/05/16 00:18:48;;;;;;;;;;;16.60;73.70;;;;;;5040048;28;88323;-69
2021/05/16 00:21:13;;;;;;;;;;;16.50;73.70;;;;;;5040517;28;86524;-69
2021/05/16 00:23:39;;;;;;;;;;;16.50;73.90;;;;;;5041950;28;88846;-69
2021/05/16 00:26:04;;;;;;;;;;;16.50;73.90;;;;;;5039240;28;88089;-70
2021/05/16 00:28:30;;;;;;;;;;;16.50;73.80;;;;;;5035368;28;89847;-70
2021/05/16 00:30:57;;;;;;;;;;;16.50;74.00;;;;;;5035915;28;88142;-69
2021/05/16 00:33:23;;;;;;;;;;;16.50;73.90;;;;;;5040011;28;87202;-70
2021/05/16 00:35:48;;;;;;;;;;;16.50;73.90;;;;;;5039934;28;87939;-70
2021/05/16 00:38:14;;;;;;;;;;;16.40;73.80;;;;;;5037100;28;88346;-69
2021/05/16 00:40:39;;;;;;;;;;;16.50;73.90;;;;;;5035303;28;87149;-69
2021/05/16 00:43:06;;;;;;;;;;;16.50;73.90;;;;;;5038166;28;87151;-70
2021/05/16 00:45:32;;;;;;;;;;;16.40;73.80;;;;;;5036401;28;86415;-69
2021/05/16 00:48:00;;;;;;;;;;;16.40;73.80;;;;;;5035884;28;88268;-69
2021/05/16 00:50:26;;;;;;;;;;;16.40;73.80;;;;;;5036374;28;89475;-69
2021/05/16 00:52:52;;;;;;;;;;;16.40;73.80;;;;;;5039036;27;89127;-69
2021/05/16 00:55:18;;;;;;;;;;;16.40;73.90;;;;;;5038330;28;89259;-70
2021/05/16 00:57:44;;;;;;;;;;;16.40;73.80;;;;;;5040546;28;87990;-70
2021/05/16 01:00:11;;;;;;;;;;;16.40;73.80;;;;;;5038524;28;88848;-70
2021/05/16 01:02:37;;;;;;;;;;;16.40;73.80;;;;;;5040401;28;89637;-69
2021/05/16 01:05:03;;;;;;;;;;;16.40;74.00;;;;;;5041222;28;89308;-69
2021/05/16 01:07:28;;;;;;;;;;;16.40;73.90;;;;;;5038871;28;87579;-69
2021/05/16 01:09:55;;;;;;;;;;;16.40;73.90;;;;;;5039278;28;87922;-69
2021/05/16 01:12:20;;;;;;;;;;;16.40;73.90;;;;;;5041134;28;88896;-70
2021/05/16 01:14:47;;;;;;;;;;;16.30;73.90;;;;;;5043290;28;89017;-69
2021/05/16 01:17:13;;;;;;;;;;;16.40;73.90;;;;;;5041060;28;89150;-71
2021/05/16 01:19:39;;;;;;;;;;;16.40;74.00;;;;;;5040747;28;87171;-70
2021/05/16 01:22:05;;;;;;;;;;;16.30;74.00;;;;;;5039274;28;87979;-69
2021/05/16 01:24:31;;;;;;;;;;;16.30;73.90;;;;;;5038039;27;90126;-70
2021/05/16 01:26:59;;;;;;;;;;;16.30;73.90;;;;;;5042116;27;87174;-69
2021/05/16 01:29:24;;;;;;;;;;;16.30;73.90;;;;;;5041305;27;89154;-71
2021/05/16 01:31:50;;;;;;;;;;;16.30;74.00;;;;;;5043026;28;87184;-69
2021/05/16 01:34:16;;;;;;;;;;;16.30;74.00;;;;;;5042764;28;86374;-69
2021/05/16 01:36:41;;;;;;;;;;;16.30;73.90;;;;;;5041912;28;87552;-69
2021/05/16 01:39:08;;;;;;;;;;;16.30;74.00;;;;;;5042000;27;87127;-69
2021/05/16 01:41:34;;;;;;;;;;;16.30;74.00;;;;;;5040579;28;88526;-69
2021/05/16 01:43:59;;;;;;;;;;;16.30;74.00;;;;;;5040530;28;88170;-70
2021/05/16 01:46:25;;;;;;;;;;;16.20;74.10;;;;;;5041960;27;87153;-70
2021/05/16 01:48:51;;;;;;;;;;;16.30;74.00;;;;;;5045255;27;88821;-70
2021/05/16 01:51:17;;;;;;;;;;;16.20;74.00;;;;;;5042704;27;87140;-70
2021/05/16 01:53:44;;;;;;;;;;;16.20;74.00;;;;;;5042273;27;87492;-69
2021/05/16 01:56:19;;;;;;;;;;;16.20;74.00;;;;;;5040475;27;89543;-69
2021/05/16 01:58:44;;;;;;;;;;;16.20;74.00;;;;;;5041320;27;87972;-69
2021/05/16 02:01:10;;;;;;;;;;;16.30;74.00;;;;;;5038215;27;89425;-69
2021/05/16 02:03:36;;;;;;;;;;;16.20;73.90;;;;;;5036821;28;88320;-69
2021/05/16 02:06:01;;;;;;;;;;;16.20;73.90;;;;;;5037266;28;88073;-70
2021/05/16 02:08:27;;;;;;;;;;;16.20;74.10;;;;;;5039292;28;87713;-69
2021/05/16 02:10:53;;;;;;;;;;;16.20;74.10;;;;;;5042671;28;88379;-70
2021/05/16 02:13:18;;;;;;;;;;;16.20;74.10;;;;;;5041355;28;87181;-69
2021/05/16 02:15:44;;;;;;;;;;;16.20;74.00;;;;;;5041238;27;88979;-70
2021/05/16 02:18:14;;;;;;;;;;;16.20;74.10;;;;;;5038230;27;88649;-69
2021/05/16 02:20:39;;;;;;;;;;;16.10;74.00;;;;;;5037379;27;89253;-69
2021/05/16 02:23:05;;;;;;;;;;;16.20;74.10;;;;;;5038118;28;86949;-70
2021/05/16 02:25:30;;;;;;;;;;;16.10;74.10;;;;;;5038482;28;87172;-70
2021/05/16 02:27:56;;;;;;;;;;;16.10;74.20;;;;;;5039655;28;89252;-69
2021/05/16 02:30:23;;;;;;;;;;;16.10;74.20;;;;;;5039033;28;89205;-70
2021/05/16 02:32:48;;;;;;;;;;;16.10;74.20;;;;;;5041697;28;87107;-70
2021/05/16 02:35:14;;;;;;;;;;;16.10;74.20;;;;;;5039730;28;87566;-70
2021/05/16 02:37:40;;;;;;;;;;;16.10;74.20;;;;;;5041020;28;87148;-69
2021/05/16 02:40:06;;;;;;;;;;;16.10;74.20;;;;;;5041364;28;88665;-70
2021/05/16 02:42:32;;;;;;;;;;;16.10;74.20;;;;;;5040517;28;87432;-69
2021/05/16 02:44:57;;;;;;;;;;;16.10;74.30;;;;;;5041012;28;87223;-70
2021/05/16 02:47:23;;;;;;;;;;;16.10;74.10;;;;;;5041486;28;88085;-69
2021/05/16 02:49:48;;;;;;;;;;;16.00;74.20;;;;;;5039174;28;87807;-70
2021/05/16 02:52:15;;;;;;;;;;;16.00;74.20;;;;;;5041397;28;88179;-69
2021/05/16 02:54:40;;;;;;;;;;;16.00;74.20;;;;;;5040197;28;90445;-69
2021/05/16 02:57:06;;;;;;;;;;;16.00;74.30;;;;;;5038455;28;87973;-69
2021/05/16 02:59:31;;;;;;;;;;;16.00;74.20;;;;;;5037125;28;87131;-69
2021/05/16 03:01:57;;;;;;;;;;;16.00;74.30;;;;;;5037007;28;89467;-69
2021/05/16 03:04:22;;;;;;;;;;;16.00;74.30;;;;;;5038052;28;87123;-70
2021/05/16 03:06:49;;;;;;;;;;;16.00;74.20;;;;;;5038683;28;87696;-70
2021/05/16 03:09:14;;;;;;;;;;;16.00;74.20;;;;;;5037793;28;87247;-69
2021/05/16 03:11:40;;;;;;;;;;;16.00;74.10;;;;;;5039855;28;86419;-69
2021/05/16 03:14:07;;;;;;;;;;;16.00;74.20;;;;;;5041674;28;87199;-70
2021/05/16 03:16:33;;;;;;;;;;;16.00;74.30;;;;;;5036064;28;89302;-69
2021/05/16 03:18:59;;;;;;;;;;;16.00;74.60;;;;;;5040012;28;89847;-70
2021/05/16 03:21:24;;;;;;;;;;;16.00;74.30;;;;;;5037011;28;89122;-70
2021/05/16 03:23:50;;;;;;;;;;;16.00;74.40;;;;;;5036854;27;87162;-70
2021/05/16 03:26:15;;;;;;;;;;;16.00;74.30;;;;;;5038247;28;87450;-69
2021/05/16 03:28:41;;;;;;;;;;;16.00;74.30;;;;;;5038904;27;89679;-70
2021/05/16 03:31:06;;;;;;;;;;;16.00;74.40;;;;;;5040370;28;87171;-69
2021/05/16 03:33:32;;;;;;;;;;;15.90;74.40;;;;;;5040587;27;87206;-69
2021/05/16 03:35:57;;;;;;;;;;;15.90;74.30;;;;;;5042642;28;87635;-69
2021/05/16 03:38:23;;;;;;;;;;;15.90;74.40;;;;;;5036274;28;88084;-70
2021/05/16 03:40:48;;;;;;;;;;;15.90;74.30;;;;;;5036931;27;89490;-69
2021/05/16 03:43:14;;;;;;;;;;;15.90;74.40;;;;;;5037721;28;88089;-70
2021/05/16 03:45:40;;;;;;;;;;;15.90;74.40;;;;;;5039551;27;88303;-70
2021/05/16 03:48:06;;;;;;;;;;;15.90;74.40;;;;;;5039972;28;90110;-68
2021/05/16 03:50:31;;;;;;;;;;;15.90;74.30;;;;;;5040626;27;87121;-69
2021/05/16 03:52:57;;;;;;;;;;;15.90;74.30;;;;;;5039892;28;87153;-70
2021/05/16 03:55:22;;;;;;;;;;;15.90;74.30;;;;;;5038603;27;88257;-69
2021/05/16 03:57:51;;;;;;;;;;;15.80;74.20;;;;;;5042403;27;87235;-70
2021/05/16 04:00:17;;;;;;;;;;;15.90;74.40;;;;;;5036544;27;87306;-69
2021/05/16 04:02:43;;;;;;;;;;;15.80;74.40;;;;;;5036833;28;87120;-70
2021/05/16 04:05:09;;;;;;;;;;;15.80;74.40;;;;;;5036797;27;87758;-69
2021/05/16 04:07:35;;;;;;;;;;;15.80;74.40;;;;;;5035218;27;88673;-70
2021/05/16 04:10:00;;;;;;;;;;;15.80;74.40;;;;;;5035753;28;87160;-69
2021/05/16 04:12:27;;;;;;;;;;;15.80;74.50;;;;;;5036319;27;88659;-69
2021/05/16 04:14:52;;;;;;;;;;;15.80;74.50;;;;;;5039328;27;90173;-70
2021/05/16 04:17:19;;;;;;;;;;;15.80;74.40;;;;;;5039146;27;87197;-69
2021/05/16 04:19:44;;;;;;;;;;;15.80;74.40;;;;;;5041016;28;88951;-69
2021/05/16 04:22:10;;;;;;;;;;;15.80;74.40;;;;;;5039797;27;87188;-68
2021/05/16 04:24:35;;;;;;;;;;;15.80;74.50;;;;;;5039214;28;87453;-69
2021/05/16 04:27:01;;;;;;;;;;;15.80;74.40;;;;;;5035668;28;89992;-69
2021/05/16 04:29:26;;;;;;;;;;;15.80;74.50;;;;;;5040234;28;87171;-69
2021/05/16 04:31:52;;;;;;;;;;;15.80;74.40;;;;;;5040941;28;88099;-69
2021/05/16 04:34:18;;;;;;;;;;;15.80;74.40;;;;;;5041088;28;89783;-69
2021/05/16 04:36:43;;;;;;;;;;;15.80;74.50;;;;;;5041860;28;87165;-68
2021/05/16 04:39:09;;;;;;;;;;;15.70;74.50;;;;;;5041361;28;88273;-69
2021/05/16 04:41:34;;;;;;;;;;;15.80;74.50;;;;;;5043598;28;87278;-70
2021/05/16 04:44:00;;;;;;;;;;;15.70;74.50;;;;;;5041862;27;88373;-69
2021/05/16 04:46:26;;;;;;;;;;;15.80;74.50;;;;;;5042363;28;87939;-69
2021/05/16 04:48:52;;;;;;;;;;;15.70;74.50;;;;;;5043971;28;86420;-69
2021/05/16 04:51:17;;;;;;;;;;;15.70;74.50;;;;;;5041905;28;88747;-69
2021/05/16 04:53:43;;;;;;;;;;;15.80;74.60;;;;;;5038508;28;87757;-70
2021/05/16 04:56:08;;;;;;;;;;;15.70;74.50;;;;;;5039399;28;88186;-70
2021/05/16 04:58:34;;;;;;;;;;;15.70;74.50;;;;;;5040095;28;87887;-70
2021/05/16 05:01:00;;;;;;;;;;;15.70;74.50;;;;;;5043610;28;89746;-70
2021/05/16 05:03:26;;;;;;;;;;;15.70;74.50;;;;;;5039440;28;88535;-69
2021/05/16 05:05:55;;;;;;;;;;;15.70;74.60;;;;;;5040407;28;87910;-70
2021/05/16 05:08:21;;;;;;;;;;;15.70;74.60;;;;;;5041123;28;88093;-70
2021/05/16 05:10:46;;;;;;;;;;;15.70;74.50;;;;;;5042985;28;88384;-69
2021/05/16 05:13:12;;;;;;;;;;;15.70;74.60;;;;;;5043014;28;87236;-70
2021/05/16 05:15:37;;;;;;;;;;;15.70;74.60;;;;;;5042489;28;88012;-69
2021/05/16 05:18:03;;;;;;;;;;;15.70;74.70;;;;;;5039102;28;88940;-69
2021/05/16 05:20:28;;;;;;;;;;;15.70;74.60;;;;;;5037738;28;89504;-69
2021/05/16 05:22:54;;;;;;;;;;;15.70;74.60;;;;;;5042960;28;87168;-69
2021/05/16 05:25:20;;;;;;;;;;;15.70;74.70;;;;;;5040887;27;89846;-70
2021/05/16 05:27:45;;;;;;;;;;;15.70;74.70;;;;;;5040831;28;87132;-70
2021/05/16 05:30:12;;;;;;;;;;;15.70;74.60;;;;;;5041682;27;88895;-69
2021/05/16 05:32:37;;;;;;;;;;;15.70;74.60;;;;;;5041791;27;88130;-69
2021/05/16 05:35:03;;;;;;;;;;;15.70;74.60;;;;;;5041986;28;88802;-69
2021/05/16 05:37:28;;;;;;;;;;;15.70;74.50;;;;;;5040279;27;88057;-69
2021/05/16 05:39:54;;;;;;;;;;;15.70;74.60;;;;;;5037016;28;87869;-70
2021/05/16 05:42:20;;;;;;;;;;;15.70;74.60;;;;;;5039786;28;87140;-70
2021/05/16 05:44:46;;;;;;;;;;;15.60;74.70;;;;;;5041568;27;88991;-67
2021/05/16 05:47:11;;;;;;;;;;;15.70;75.20;;;;;;5041106;28;87222;-69
2021/05/16 05:49:38;;;;;;;;;;;15.70;74.60;;;;;;5042348;28;87125;-69
2021/05/16 05:52:14;;;;;;;;;;;15.70;74.70;;;;;;5041026;27;89301;-68
2021/05/16 05:54:40;;;;;;;;;;;15.70;74.70;;;;;;5040396;28;87276;-69
2021/05/16 05:57:05;;;;;;;;;;;15.70;74.70;;;;;;5042509;27;87278;-68
2021/05/16 05:59:31;;;;;;;;;;;15.70;74.70;;;;;;5040270;28;88109;-70
2021/05/16 06:01:57;;;;;;;;;;;15.70;74.70;;;;;;5038943;27;87284;-70
2021/05/16 06:04:23;;;;;;;;;;;15.70;74.70;;;;;;5037852;27;88985;-70
2021/05/16 06:06:49;;;;;;;;;;;15.70;74.70;;;;;;5040261;27;89283;-70
2021/05/16 06:09:14;;;;;;;;;;;15.70;74.70;;;;;;5037179;27;88176;-69
2021/05/16 06:11:40;;;;;;;;;;;15.70;74.70;;;;;;5037129;28;88557;-70
2021/05/16 06:14:05;;;;;;;;;;;15.70;74.70;;;;;;5041239;28;88611;-69
2021/05/16 06:16:31;;;;;;;;;;;15.70;74.70;;;;;;5042470;28;87555;-69
2021/05/16 06:18:57;;;;;;;;;;;15.70;74.70;;;;;;5039494;28;87846;-70
2021/05/16 06:21:23;;;;;;;;;;;15.70;74.70;;;;;;5039421;27;87433;-69
2021/05/16 06:24:09;;;;;;;;;;;15.70;74.70;;;;;;5037356;28;88724;-70
2021/05/16 06:26:36;;;;;;;;;;;15.70;74.70;;;;;;5038408;28;88825;-70
2021/05/16 06:29:03;;;;;;;;;;;15.70;74.70;;;;;;5040379;28;87822;-70
2021/05/16 06:31:28;;;;;;;;;;;15.70;74.70;;;;;;5037924;28;88810;-70
2021/05/16 06:33:55;;;;;;;;;;;15.70;74.80;;;;;;5037240;28;88132;-70
2021/05/16 06:36:20;;;;;;;;;;;15.70;74.80;;;;;;5037728;28;89029;-69
2021/05/16 06:38:46;;;;;;;;;;;15.70;74.80;;;;;;5038473;28;89692;-69
2021/05/16 06:41:11;;;;;;;;;;;15.70;74.80;;;;;;5040195;28;87110;-69
2021/05/16 06:43:37;;;;;;;;;;;15.70;74.80;;;;;;5041153;28;87927;-69
2021/05/16 06:46:03;;;;;;;;;;;15.70;74.90;;;;;;5040254;28;88538;-69
2021/05/16 06:48:28;;;;;;;;;;;15.70;74.80;;;;;;5038894;28;89373;-69
2021/05/16 06:50:54;;;;;;;;;;;15.70;74.80;;;;;;5044242;27;89124;-70
2021/05/16 06:53:19;;;;;;;;;;;15.70;74.80;;;;;;5041142;28;87182;-70
2021/05/16 06:55:46;;;;;;;;;;;15.80;74.80;;;;;;5040430;28;87358;-70
2021/05/16 06:58:11;;;;;;;;;;;15.70;74.80;;;;;;5037798;28;88678;-70
2021/05/16 07:00:37;;;;;;;;;;;15.80;74.90;;;;;;5039984;28;87218;-70
2021/05/16 07:03:02;;;;;;;;;;;15.80;75.00;;;;;;5041046;28;88841;-69
2021/05/16 07:05:28;;;;;;;;;;;15.70;74.90;;;;;;5038953;28;88797;-69
2021/05/16 07:07:54;;;;;;;;;;;15.80;75.00;;;;;;5036409;28;87131;-69
2021/05/16 07:10:19;;;;;;;;;;;15.80;74.90;;;;;;5039744;28;87773;-70
2021/05/16 07:12:45;;;;;;;;;;;15.80;74.90;;;;;;5040151;28;87881;-68
2021/05/16 07:15:13;;;;;;;;;;;15.80;74.90;;;;;;5040500;28;88613;-69
2021/05/16 07:17:39;;;;;;;;;;;15.80;74.90;;;;;;5035874;28;89096;-70
2021/05/16 07:20:05;;;;;;;;;;;15.80;74.90;;;;;;5037188;28;87991;-70
2021/05/16 07:22:30;;;;;;;;;;;15.80;75.00;;;;;;5016122;28;88068;-69
2021/05/16 07:24:56;;;;;;;;;;;15.80;75.00;;;;;;5017583;28;87672;-69
2021/05/16 07:27:21;;;;;;;;;;;15.80;75.00;;;;;;5019131;28;87180;-69
2021/05/16 07:29:48;;;;;;;;;;;15.80;75.00;;;;;;5018715;28;87463;-70
2021/05/16 07:32:13;;;;;;;;;;;15.80;74.90;;;;;;5019245;28;88284;-70
2021/05/16 07:34:39;;;;;;;;;;;15.90;74.90;;;;;;5017210;28;87163;-69
2021/05/16 07:37:04;;;;;;;;;;;15.90;75.00;;;;;;5018022;28;87661;-69
2021/05/16 07:39:30;;;;;;;;;;;15.90;75.00;;;;;;5020221;28;86450;-69
2021/05/16 07:41:55;;;;;;;;;;;15.90;75.00;;;;;;5020819;28;87224;-70
2021/05/16 07:44:21;;;;;;;;;;;15.90;74.90;;;;;;5017267;28;88670;-69
2021/05/16 07:46:46;;;;;;;;;;;15.90;74.90;;;;;;5017142;28;89746;-69
2021/05/16 07:49:12;;;;;;;;;;;16.00;74.90;;;;;;5016180;28;89842;-69
2021/05/16 07:51:37;;;;;;;;;;;16.00;75.00;;;;;;5015920;28;87869;-69
2021/05/16 07:54:03;;;;;;;;;;;16.00;75.00;;;;;;5020432;28;87136;-69
2021/05/16 07:56:29;;;;;;;;;;;16.00;75.00;;;;;;5018321;28;87268;-70
2021/05/16 07:58:54;;;;;;;;;;;16.00;75.00;;;;;;5019835;28;87167;-70
2021/05/16 08:01:20;;;;;;;;;;;16.00;75.10;;;;;;5020427;28;89236;-70
2021/05/16 08:03:46;;;;;;;;;;;16.00;75.10;;;;;;5023359;28;87443;-69
2021/05/16 08:06:12;;;;;;;;;;;16.00;75.10;;;;;;5021905;28;87123;-70
2021/05/16 08:08:37;;;;;;;;;;;16.00;75.10;;;;;;5022030;28;88670;-70
2021/05/16 08:11:03;;;;;;;;;;;16.00;75.20;;;;;;5021362;28;90633;-70
2021/05/16 08:13:29;;;;;;;;;;;16.00;75.10;;;;;;5023408;28;87163;-69
2021/05/16 08:15:54;;;;;;;;;;;16.00;75.10;;;;;;5024635;28;87968;-69
2021/05/16 08:18:20;;;;;;;;;;;16.10;75.10;;;;;;5021757;28;87168;-69
2021/05/16 08:20:45;;;;;;;;;;;16.10;75.10;;;;;;5025177;28;88683;-69
2021/05/16 08:23:11;;;;;;;;;;;16.00;75.10;;;;;;5040016;28;87550;-70
2021/05/16 08:25:38;;;;;;;;;;;16.10;75.20;;;;;;5041403;28;87300;-70
2021/05/16 08:28:04;;;;;;;;;;;16.10;75.20;;;;;;5040165;28;89367;-70
2021/05/16 08:30:30;;;;;;;;;;;16.10;75.10;;;;;;5040229;28;87721;-70
2021/05/16 08:32:56;;;;;;;;;;;16.10;75.10;;;;;;5041666;28;87252;-69
2021/05/16 08:35:22;;;;;;;;;;;16.10;75.20;;;;;;5041499;28;88130;-69
2021/05/16 08:37:47;;;;;;;;;;;16.10;75.20;;;;;;5045782;28;89085;-70
2021/05/16 08:40:15;;;;;;;;;;;16.10;75.20;;;;;;5042724;28;88722;-70
2021/05/16 08:42:41;;;;;;;;;;;16.10;75.30;;;;;;5039079;28;88539;-69
2021/05/16 08:45:10;;;;;;;;;;;16.10;75.40;;;;;;5040390;28;88478;-70
2021/05/16 08:47:36;;;;;;;;;;;16.10;75.30;;;;;;5041286;28;88494;-70
2021/05/16 08:50:02;;;;;;;;;;;16.10;75.30;;;;;;5041166;28;91165;-69
2021/05/16 08:52:27;;;;;;;;;;;16.10;75.20;;;;;;5042094;28;86510;-70
2021/05/16 08:54:53;;;;;;;;;;;16.20;75.30;;;;;;5041980;28;87245;-70
2021/05/16 08:57:19;;;;;;;;;;;16.20;75.40;;;;;;5041149;28;89227;-70
2021/05/16 09:00:03;;;;;;;;;;;16.20;75.40;;;;;;5044728;28;88122;-69
2021/05/16 09:02:29;;;;;;;;;;;16.20;75.50;;;;;;5038571;28;87327;-69
2021/05/16 09:07:38;;;;;;;;;;;16.20;75.30;;;;;;5040050;28;87196;-69
2021/05/16 09:10:04;;;;;;;;;;;16.20;75.30;;;;;;5038950;28;88471;-69
2021/05/16 09:12:30;;;;;;;;;;;16.20;75.40;;;;;;5038137;28;87151;-69
2021/05/16 09:15:00;;;;;;;;;;;16.20;75.40;;;;;;5039885;28;88091;-69
2021/05/16 09:17:32;;;;;;;;;;;16.20;75.50;;;;;;5039912;28;88851;-69
2021/05/16 09:20:00;;;;;;;;;;;16.20;75.50;;;;;;5045729;28;87940;-69
2021/05/16 09:22:36;;;;;;;;;;;16.20;75.60;;;;;;5021199;28;87612;-70
2021/05/16 09:25:06;;;;;;;;;;;16.30;75.50;;;;;;5020146;28;88138;-70
2021/05/16 09:27:35;;;;;;;;;;;16.30;75.50;;;;;;5021278;28;89965;-69
2021/05/16 09:30:01;;;;;;;;;;;16.30;75.50;;;;;;5018313;28;89737;-70
2021/05/16 09:32:27;;;;;;;;;;;16.30;75.50;;;;;;5021627;28;88655;-70
2021/05/16 09:34:53;;;;;;;;;;;16.30;75.50;;;;;;5018582;28;89013;-70
2021/05/16 09:37:20;;;;;;;;;;;16.30;75.50;;;;;;5017577;28;89224;-70
2021/05/16 09:39:45;;;;;;;;;;;16.30;75.70;;;;;;5018956;28;88115;-69
2021/05/16 09:42:13;;;;;;;;;;;16.30;75.60;;;;;;5025401;28;88988;-69
2021/05/16 09:44:38;;;;;;;;;;;16.30;75.70;;;;;;5020341;28;87232;-69
2021/05/16 09:47:14;;;;;;;;;;;16.30;75.80;;;;;;5021900;28;87460;-69
2021/05/16 09:49:50;;;;;;;;;;;16.30;75.60;;;;;;5021270;28;90583;-68
2021/05/16 09:52:15;;;;;;;;;;;16.30;75.70;;;;;;5021354;28;88710;-68
2021/05/16 09:54:57;;;;;;;;;;;16.30;75.80;;;;;;5019717;28;88402;-69
2021/05/16 09:57:23;;;;;;;;;;;16.30;76.40;;;;;;5019477;28;90115;-70
2021/05/16 09:59:49;;;;;;;;;;;16.30;75.90;;;;;;5022593;28;87397;-68
2021/05/16 10:02:17;;;;;;;;;;;16.30;76.00;;;;;;5019435;28;89567;-69
2021/05/16 10:04:46;;;;;;;;;;;16.30;75.90;;;;;;5022480;28;87606;-70
2021/05/16 10:07:13;;;;;;;;;;;16.30;76.00;;;;;;5022452;28;87625;-69
2021/05/16 10:09:38;;;;;;;;;;;16.30;76.00;;;;;;5021084;28;88294;-69
2021/05/16 10:12:07;;;;;;;;;;;16.40;76.20;;;;;;5022205;28;88545;-70
2021/05/16 10:14:36;;;;;;;;;;;16.30;76.10;;;;;;5018502;28;88102;-70
2021/05/16 10:17:02;;;;;;;;;;;16.30;76.20;;;;;;5020571;28;89338;-69
2021/05/16 10:19:36;;;;;;;;;;;16.30;76.20;;;;;;5020922;28;87194;-70
2021/05/16 10:22:08;;;;;;;;;;;16.30;76.30;;;;;;5035733;28;88751;-70
2021/05/16 10:24:53;;;;;;;;;;;16.30;76.30;;;;;;5037325;28;89815;-70
2021/05/16 10:27:26;;;;;;;;;;;16.30;76.30;;;;;;5042525;28;87179;-69
2021/05/16 10:29:55;;;;;;;;;;;16.30;76.30;;;;;;5037729;28;89752;-71
2021/05/16 10:32:22;;;;;;;;;;;16.30;76.50;;;;;;5040746;28;86423;-70
2021/05/16 10:35:07;;;;;;;;;;;16.30;76.60;;;;;;5038266;28;88186;-70
2021/05/16 10:37:55;;;;;;;;;;;16.30;76.40;;;;;;5040220;28;89304;-71
2021/05/16 10:40:22;;;;;;;;;;;16.30;76.50;;;;;;5037403;28;88125;-71
2021/05/16 10:42:49;;;;;;;;;;;16.30;76.40;;;;;;5037251;28;89875;-70
2021/05/16 10:45:16;;;;;;;;;;;16.30;76.30;;;;;;5037234;28;89261;-69
2021/05/16 10:47:45;;;;;;;;;;;16.50;76.30;;;;;;5040264;28;87111;-70
2021/05/16 10:50:12;;;;;;;;;;;16.40;76.30;;;;;;5041614;28;88984;-70
2021/05/16 10:52:38;;;;;;;;;;;16.40;76.40;;;;;;5041094;28;88039;-69
2021/05/16 10:55:05;;;;;;;;;;;16.40;76.30;;;;;;5041299;28;87519;-69
2021/05/16 10:57:39;;;;;;;;;;;16.50;76.30;;;;;;5038750;28;89259;-69
2021/05/16 11:00:20;;;;;;;;;;;16.50;76.20;;;;;;5038900;28;87184;-69
2021/05/16 11:03:02;;;;;;;;;;;16.50;76.20;;;;;;5037267;28;88991;-69
2021/05/16 11:05:40;;;;;;;;;;;16.60;76.20;;;;;;5040355;28;89349;-69
2021/05/16 11:08:06;;;;;;;;;;;16.50;76.20;;;;;;5037674;28;87152;-70
2021/05/16 11:10:32;;;;;;;;;;;16.60;76.20;;;;;;5039472;28;88633;-70
2021/05/16 11:13:07;;;;;;;;;;;16.60;76.30;;;;;;5036981;28;87133;-69
2021/05/16 11:15:32;;;;;;;;;;;16.60;76.20;;;;;;5037998;28;88565;-69
2021/05/16 11:17:58;;;;;;;;;;;16.50;76.30;;;;;;5037951;28;87675;-69
2021/05/16 11:20:24;;;;;;;;;;;16.60;76.10;;;;;;5037768;28;87129;-70
2021/05/16 11:22:49;;;;;;;;;;;16.60;76.30;;;;;;5037775;27;88672;-69
2021/05/16 11:25:24;;;;;;;;;;;16.60;76.20;;;;;;5038162;28;88055;-69
2021/05/16 11:27:50;;;;;;;;;;;16.60;76.20;;;;;;5039916;27;87194;-70
2021/05/16 11:30:17;;;;;;;;;;;16.60;76.10;;;;;;5040349;27;88068;-68
2021/05/16 11:32:42;;;;;;;;;;;16.60;76.10;;;;;;5041906;28;90195;-70
2021/05/16 11:35:11;;;;;;;;;;;16.60;75.90;;;;;;5039689;28;87134;-69
2021/05/16 11:37:37;;;;;;;;;;;16.60;76.00;;;;;;5034875;28;87658;-70
2021/05/16 11:40:16;;;;;;;;;;;16.60;76.10;;;;;;5037269;28;87139;-69
2021/05/16 11:42:42;;;;;;;;;;;16.60;76.10;;;;;;5039547;27;87140;-69
2021/05/16 11:45:09;;;;;;;;;;;16.70;76.10;;;;;;5037616;27;89441;-70
2021/05/16 11:47:38;;;;;;;;;;;16.70;76.20;;;;;;5036902;27;86420;-69
2021/05/16 11:50:05;;;;;;;;;;;16.70;76.20;;;;;;5038184;27;87166;-69
2021/05/16 11:52:30;;;;;;;;;;;16.70;76.10;;;;;;5037298;27;89911;-69
2021/05/16 11:55:02;;;;;;;;;;;16.70;76.20;;;;;;5041342;28;88093;-69
2021/05/16 11:57:28;;;;;;;;;;;16.80;76.20;;;;;;5038485;27;89658;-70
2021/05/16 11:59:53;;;;;;;;;;;16.70;76.20;;;;;;5037458;27;87167;-71
2021/05/16 12:02:19;;;;;;;;;;;16.80;76.40;;;;;;5036978;28;87206;-70
2021/05/16 12:04:44;;;;;;;;;;;16.80;76.30;;;;;;5035408;27;88758;-70
2021/05/16 12:07:10;;;;;;;;;;;16.70;76.30;;;;;;5036056;27;88498;-71
2021/05/16 12:09:37;;;;;;;;;;;16.70;76.30;;;;;;5039488;27;87933;-69
2021/05/16 12:12:02;;;;;;;;;;;16.80;76.30;;;;;;5039892;28;87412;-70
2021/05/16 12:14:30;;;;;;;;;;;16.80;76.40;;;;;;5040548;27;88751;-70
2021/05/16 12:16:55;;;;;;;;;;;16.70;76.40;;;;;;5041901;27;88656;-69
2021/05/16 12:19:21;;;;;;;;;;;16.80;76.50;;;;;;5039345;28;89067;-70
2021/05/16 12:21:51;;;;;;;;;;;16.80;76.40;;;;;;5039265;27;87873;-69
2021/05/16 12:24:20;;;;;;;;;;;16.80;77.20;;;;;;5035758;28;89505;-69
2021/05/16 12:26:46;;;;;;;;;;;16.80;76.60;;;;;;5038903;28;87166;-71
2021/05/16 12:29:12;;;;;;;;;;;16.80;76.60;;;;;;5040086;28;88907;-69
2021/05/16 12:31:38;;;;;;;;;;;16.80;76.50;;;;;;5039575;28;88110;-69
2021/05/16 12:34:04;;;;;;;;;;;16.80;76.50;;;;;;5039331;28;88046;-69
2021/05/16 12:36:44;;;;;;;;;;;16.80;76.50;;;;;;5038283;28;89961;-69
2021/05/16 12:39:09;;;;;;;;;;;16.80;76.50;;;;;;5039653;28;89305;-69
2021/05/16 12:41:35;;;;;;;;;;;16.80;76.40;;;;;;5036806;28;87812;-69
2021/05/16 12:44:03;;;;;;;;;;;16.80;76.40;;;;;;5034912;28;89058;-69
2021/05/16 12:46:40;;;;;;;;;;;16.80;76.50;;;;;;5038472;28;87289;-70
2021/05/16 12:49:06;;;;;;;;;;;16.80;76.30;;;;;;5037252;28;87399;-70
2021/05/16 12:51:33;;;;;;;;;;;16.80;76.40;;;;;;5041143;28;88063;-69
2021/05/16 12:54:15;;;;;;;;;;;16.80;76.40;;;;;;5042353;28;87156;-69
2021/05/16 12:56:44;;;;;;;;;;;16.80;76.60;;;;;;5042590;28;87147;-69
2021/05/16 12:59:11;;;;;;;;;;;16.80;76.50;;;;;;5038567;28;88038;-70
2021/05/16 13:01:39;;;;;;;;;;;16.80;76.60;;;;;;5046335;28;86400;-69
2021/05/16 13:04:10;;;;;;;;;;;16.80;76.60;;;;;;5040880;28;88996;-69
2021/05/16 13:06:39;;;;;;;;;;;16.80;76.50;;;;;;5042129;28;87229;-71
2021/05/16 13:09:05;;;;;;;;;;;16.80;76.60;;;;;;5038967;28;89749;-69
2021/05/16 13:11:49;;;;;;;;;;;16.80;76.60;;;;;;5037790;28;89458;-70
2021/05/16 13:14:28;;;;;;;;;;;16.80;76.60;;;;;;5040654;28;87135;-70
2021/05/16 13:17:14;;;;;;;;;;;16.90;76.50;;;;;;5039017;28;88146;-69
2021/05/16 13:19:44;;;;;;;;;;;16.80;76.40;;;;;;5040835;28;87742;-69
2021/05/16 13:22:28;;;;;;;;;;;16.90;76.40;;;;;;5042338;28;87252;-69
2021/05/16 13:24:54;;;;;;;;;;;16.90;76.30;;;;;;5040372;28;88062;-69
2021/05/16 13:27:19;;;;;;;;;;;16.90;76.20;;;;;;5040763;28;86433;-69
2021/05/16 13:29:47;;;;;;;;;;;16.90;76.20;;;;;;5041008;27;87137;-69
2021/05/16 13:32:14;;;;;;;;;;;16.90;76.20;;;;;;5038065;27;89796;-70
2021/05/16 13:34:40;;;;;;;;;;;16.90;76.30;;;;;;5037261;28;88053;-70
2021/05/16 13:37:05;;;;;;;;;;;16.90;76.30;;;;;;5040390;27;89725;-69
2021/05/16 13:39:31;;;;;;;;;;;16.90;76.30;;;;;;5042705;28;88504;-69
2021/05/16 13:42:00;;;;;;;;;;;16.90;76.30;;;;;;5042258;27;89063;-69
2021/05/16 13:44:26;;;;;;;;;;;16.90;76.30;;;;;;5041931;27;88876;-70
2021/05/16 13:46:52;;;;;;;;;;;16.90;76.30;;;;;;5039072;27;87211;-70
2021/05/16 13:49:17;;;;;;;;;;;16.90;76.50;;;;;;5038386;27;88502;-72
2021/05/16 13:51:43;;;;;;;;;;;16.90;76.50;;;;;;5039015;27;87410;-71
2021/05/16 13:54:09;;;;;;;;;;;16.90;76.50;;;;;;5039099;28;87186;-71
2021/05/16 13:56:36;;;;;;;;;;;16.90;76.50;;;;;;5039067;27;89244;-71
2021/05/16 13:59:01;;;;;;;;;;;16.90;76.50;;;;;;5038106;27;90617;-72
2021/05/16 14:01:27;;;;;;;;;;;16.90;76.50;;;;;;5039361;27;87100;-71
2021/05/16 14:03:52;;;;;;;;;;;16.90;76.50;;;;;;5039572;28;87423;-72
2021/05/16 14:06:18;;;;;;;;;;;16.90;76.30;;;;;;5042784;27;87153;-71
2021/05/16 14:08:44;;;;;;;;;;;17.00;76.20;;;;;;5041234;27;88873;-71
2021/05/16 14:11:10;;;;;;;;;;;17.00;76.20;;;;;;5041336;27;88132;-70
2021/05/16 14:13:36;;;;;;;;;;;17.10;76.20;;;;;;5042171;27;88841;-71
2021/05/16 14:16:03;;;;;;;;;;;17.10;76.10;;;;;;5042641;27;87416;-70
2021/05/16 14:18:28;;;;;;;;;;;17.10;76.20;;;;;;5040916;27;88712;-71